Time;durP1;ratioP1;P1;durP2;ratioP2;P2;SDS_P1;SDS_P2;PMS_P1;PMS_P2;Temp;Humidity;BMP_temperature;BMP_pressure;BME280_temperature;BME280_humidity;BME280_pressure;Samples;Min_cycle;Max_cycle;Signal;HPM_P1;HPM_P2
2022/12/13 00:09:18;;;;;;;25.42;10.80;;;-2.20;99.90;;;;;;6307451;22;20025;-87
2022/12/13 00:11:45;;;;;;;24.10;10.40;;;-2.20;99.90;;;;;;6255017;22;20027;-86
2022/12/13 00:14:12;;;;;;;28.25;11.75;;;-2.10;99.90;;;;;;6255246;22;20113;-86
2022/12/13 00:16:39;;;;;;;23.75;10.63;;;-2.20;99.90;;;;;;6230576;22;20325;-87
2022/12/13 00:19:05;;;;;;;24.27;10.32;;;-2.10;99.90;;;;;;6280781;22;20012;-87
2022/12/13 00:21:43;;;;;;;24.08;10.35;;;-2.10;99.90;;;;;;6255916;22;20056;-88
2022/12/13 00:24:09;;;;;;;26.30;10.18;;;-2.10;99.90;;;;;;6229796;22;20018;-86
2022/12/13 00:26:35;;;;;;;26.67;10.27;;;-2.10;99.90;;;;;;6229669;22;20015;-87
2022/12/13 00:29:03;;;;;;;23.52;9.50;;;-2.10;99.90;;;;;;6229875;22;20090;-90
2022/12/13 00:31:37;;;;;;;28.60;11.18;;;-2.20;99.90;;;;;;6254821;22;20019;-87
2022/12/13 00:34:29;;;;;;;27.42;11.40;;;-2.20;99.90;;;;;;6255499;22;20098;-88
2022/12/13 00:37:19;;;;;;;23.45;11.07;;;-2.30;99.90;;;;;;6280760;22;20015;-94
2022/12/13 00:39:45;;;;;;;21.25;10.60;;;-2.30;99.90;;;;;;6255475;22;20018;-95
2022/12/13 00:42:11;;;;;;;21.85;9.95;;;-2.30;99.90;;;;;;6255806;22;20372;-95
2022/12/13 00:44:36;;;;;;;22.67;9.40;;;-2.30;99.90;;;;;;6255580;22;20096;-94
2022/12/13 00:47:02;;;;;;;23.50;10.93;;;-2.40;99.90;;;;;;6255862;22;20012;-95
2022/12/13 00:49:28;;;;;;;22.55;9.73;;;-2.50;99.90;;;;;;6255702;22;20452;-94
2022/12/13 00:51:54;;;;;;;23.70;10.05;;;-2.60;99.90;;;;;;6255923;22;20013;-94
2022/12/13 00:54:19;;;;;;;21.90;9.30;;;-2.60;99.90;;;;;;6255251;22;20023;-95
2022/12/13 00:56:45;;;;;;;24.33;10.30;;;-2.70;99.90;;;;;;6230760;22;20022;-94
2022/12/13 00:59:13;;;;;;;19.90;9.40;;;-2.70;99.90;;;;;;6255721;22;20045;-95
2022/12/13 01:01:39;;;;;;;;;;;-2.80;99.90;;;;;;6256058;22;20453;-94
2022/12/13 01:04:06;;;;;;;22.30;9.40;;;-2.80;99.90;;;;;;6255361;22;19917;-95
2022/12/13 01:11:57;;;;;;;21.52;10.13;;;-3.00;99.90;;;;;;6306539;22;20019;-89
2022/12/13 01:14:23;;;;;;;25.38;10.07;;;-3.00;99.90;;;;;;6254345;22;20019;-89
2022/12/13 01:16:49;;;;;;;23.70;9.88;;;-3.00;99.90;;;;;;6254480;22;20080;-88
2022/12/13 01:19:15;;;;;;;24.15;9.93;;;-2.90;99.90;;;;;;6254628;22;20015;-88
2022/12/13 01:21:40;;;;;;;24.98;10.95;;;-2.90;99.90;;;;;;6254553;22;20011;-88
2022/12/13 01:24:47;;;;;;;20.45;9.02;;;-2.90;99.90;;;;;;6254685;22;20015;-89
2022/12/13 01:27:33;;;;;;;20.25;9.68;;;-3.00;99.90;;;;;;6281041;22;20015;-89
2022/12/13 01:29:58;;;;;;;24.38;9.95;;;-3.00;99.90;;;;;;6227833;22;20023;-88
2022/12/13 01:32:24;;;;;;;24.38;10.38;;;-3.10;99.90;;;;;;6254601;22;20022;-88
2022/12/13 01:34:50;;;;;;;23.85;10.38;;;-3.10;99.90;;;;;;6279872;22;20026;-88
2022/12/13 01:37:31;;;;;;;18.40;9.35;;;-3.20;99.90;;;;;;6254343;22;20011;-88
2022/12/13 01:39:56;;;;;;;21.48;9.95;;;-3.20;99.90;;;;;;6279752;22;20090;-88
2022/12/13 01:42:31;;;;;;;21.92;9.48;;;-3.30;99.90;;;;;;6230406;22;20057;-88
2022/12/13 01:45:03;;;;;;;19.75;9.25;;;-3.30;99.90;;;;;;6255624;22;20325;-88
2022/12/13 01:47:47;;;;;;;24.83;10.60;;;-3.40;99.90;;;;;;6256259;22;20022;-88
2022/12/13 01:50:31;;;;;;;23.05;11.02;;;-3.40;99.90;;;;;;6256119;22;20098;-88
2022/12/13 01:52:58;;;;;;;23.25;9.18;;;-3.40;99.90;;;;;;6256187;22;20011;-88
2022/12/13 01:55:27;;;;;;;21.00;9.55;;;-3.40;99.90;;;;;;6281905;22;20098;-89
2022/12/13 01:57:56;;;;;;;23.40;10.50;;;-3.40;99.90;;;;;;6277501;22;20015;-91
2022/12/13 02:00:24;;;;;;;23.50;9.75;;;-3.30;99.90;;;;;;6313152;22;20366;-88
2022/12/13 02:02:51;;;;;;;26.55;10.57;;;-3.30;99.90;;;;;;6313297;22;20054;-87
2022/12/13 02:05:23;;;;;;;;;;;-3.30;99.90;;;;;;6313845;22;20057;-94
2022/12/13 02:07:49;;;;;;;20.10;9.32;;;-3.30;99.90;;;;;;6287393;22;19997;-94
2022/12/13 02:10:16;;;;;;;21.92;10.00;;;-3.20;99.90;;;;;;6313040;22;20348;-95
2022/12/13 02:13:19;;;;;;;21.40;9.70;;;-3.20;99.90;;;;;;6313021;22;20019;-86
2022/12/13 02:16:38;;;;;;;22.83;10.35;;;-3.20;99.90;;;;;;6287104;22;20015;-86
2022/12/13 02:19:10;;;;;;;23.10;9.75;;;-3.20;99.90;;;;;;6313517;22;20098;-95
2022/12/13 02:21:58;;;;;;;23.13;9.52;;;-3.20;99.90;;;;;;6287507;22;20019;-92
2022/12/13 02:24:52;;;;;;;22.30;10.38;;;-3.10;99.90;;;;;;6287657;22;20089;-94
2022/12/13 02:27:27;;;;;;;22.98;9.65;;;-3.10;99.90;;;;;;6287771;22;20011;-92
2022/12/13 02:30:12;;;;;;;23.95;9.95;;;-3.10;99.90;;;;;;6287410;22;20015;-91
2022/12/13 02:35:29;;;;;;;22.88;8.80;;;-3.20;99.90;;;;;;6308260;22;20459;-87
2022/12/13 02:38:16;;;;;;;21.60;9.95;;;-3.10;99.90;;;;;;6281109;22;20023;-88
2022/12/13 02:40:53;;;;;;;21.65;9.52;;;-3.10;99.90;;;;;;6281078;22;20099;-87
2022/12/13 02:43:28;;;;;;;21.45;9.50;;;-3.10;99.90;;;;;;6281186;22;20094;-88
2022/12/13 02:45:58;;;;;;;21.58;9.63;;;-3.20;99.90;;;;;;6306988;22;20023;-89
2022/12/13 02:49:02;;;;;;;22.90;8.57;;;-3.20;99.90;;;;;;6281087;22;20051;-88
2022/12/13 02:51:53;;;;;;;20.73;9.10;;;-3.30;99.90;;;;;;6306994;22;20016;-93
2022/12/13 02:54:19;;;;;;;21.20;9.88;;;-3.30;99.90;;;;;;6282383;22;20020;-95
2022/12/13 02:56:56;;;;;;;20.88;9.60;;;-3.30;99.90;;;;;;6282282;22;20104;-92
2022/12/13 02:59:28;;;;;;;20.05;9.35;;;-3.30;99.90;;;;;;6281866;22;20050;-94
2022/12/13 03:02:28;;;;;;;19.55;9.65;;;-3.30;99.90;;;;;;6282061;22;20030;-94
2022/12/13 03:08:34;;;;;;;18.75;9.27;;;-3.20;99.90;;;;;;6307546;22;20047;-94
2022/12/13 03:11:16;;;;;;;21.45;9.90;;;-3.20;99.90;;;;;;6229873;22;20043;-94
2022/12/13 03:13:53;;;;;;;23.75;10.63;;;-3.20;99.90;;;;;;6282086;22;20498;-91
2022/12/13 03:16:35;;;;;;;21.60;9.57;;;-3.20;99.90;;;;;;6282260;22;20015;-95
2022/12/13 03:19:04;;;;;;;23.88;9.25;;;-3.20;99.90;;;;;;6281707;22;20068;-95
2022/12/13 03:21:41;;;;;;;22.90;9.20;;;-3.30;99.90;;;;;;6282293;22;20027;-92
2022/12/13 03:24:07;;;;;;;24.67;9.95;;;-3.30;99.90;;;;;;6281840;22;20011;-91
2022/12/13 03:26:35;;;;;;;21.33;8.98;;;-3.30;99.90;;;;;;6256390;22;20019;-93
2022/12/13 03:29:00;;;;;;;22.88;9.73;;;-3.20;99.90;;;;;;6256692;22;20015;-95
2022/12/13 03:31:26;;;;;;;22.52;9.38;;;-3.20;99.90;;;;;;6256097;22;20018;-96
2022/12/13 03:33:52;;;;;;;20.35;9.25;;;-3.20;99.90;;;;;;6230804;22;20459;-94
2022/12/13 03:36:18;;;;;;;23.27;9.23;;;-3.20;99.90;;;;;;6231051;22;20077;-94
2022/12/13 03:38:47;;;;;;;21.75;10.05;;;-3.10;99.90;;;;;;6256303;22;20054;-95
2022/12/13 03:41:17;;;;;;;20.88;10.02;;;-3.10;99.90;;;;;;6256687;22;20015;-91
2022/12/13 03:43:43;;;;;;;22.52;10.20;;;-3.10;99.90;;;;;;6281828;22;20012;-94
2022/12/13 03:46:09;;;;;;;22.35;9.93;;;-3.10;99.90;;;;;;6256334;22;20016;-93
2022/12/13 03:48:36;;;;;;;18.37;9.17;;;-3.10;99.90;;;;;;6231072;22;20015;-96
2022/12/13 03:51:01;;;;;;;20.15;9.38;;;-3.10;99.90;;;;;;6281606;22;20015;-95
2022/12/13 03:53:36;;;;;;;22.52;9.48;;;-3.10;99.90;;;;;;6282640;22;20011;-95
2022/12/13 03:56:04;;;;;;;20.38;8.98;;;-3.10;99.90;;;;;;6281925;22;20339;-95
2022/12/13 03:58:32;;;;;;;22.00;9.07;;;-3.10;99.90;;;;;;6281871;22;20019;-93
2022/12/13 04:00:58;;;;;;;21.00;9.43;;;-3.10;99.90;;;;;;6281424;22;20026;-93
2022/12/13 04:04:02;;;;;;;21.45;9.25;;;-3.10;99.90;;;;;;6282010;22;20015;-96
2022/12/13 04:06:48;;;;;;;17.90;8.38;;;-3.10;99.90;;;;;;6282011;22;20022;-89
2022/12/13 04:09:14;;;;;;;21.30;8.93;;;-3.10;99.90;;;;;;6280790;22;20054;-89
2022/12/13 04:14:24;;;;;;;20.33;8.38;;;-3.10;99.90;;;;;;6284694;22;20062;-90
2022/12/13 04:16:52;;;;;;;23.27;9.60;;;-3.10;99.90;;;;;;6255443;22;20019;-89
2022/12/13 04:19:18;;;;;;;24.08;9.48;;;-3.10;99.90;;;;;;6229778;22;20015;-89
2022/12/13 04:24:24;;;;;;;23.08;8.68;;;-3.30;99.90;;;;;;6265601;22;20020;-93
2022/12/13 04:30:31;;;;;;;;;;;-3.30;99.90;;;;;;6015308;23;20029;-95
2022/12/13 04:33:33;;;;;;;23.08;9.52;;;-3.40;99.90;;;;;;6099454;23;19955;-93
2022/12/13 04:36:18;;;;;;;19.73;9.13;;;-3.40;99.90;;;;;;6104945;23;20020;-91
2022/12/13 04:38:47;;;;;;;19.45;9.13;;;-3.30;99.90;;;;;;6129344;23;20068;-89
2022/12/13 04:41:15;;;;;;;23.95;9.02;;;-3.40;99.90;;;;;;6166482;22;20020;-92
2022/12/13 04:43:41;;;;;;;20.38;9.90;;;-3.40;99.90;;;;;;6249898;22;20012;-94
2022/12/13 04:46:07;;;;;;;20.10;9.45;;;-3.40;99.90;;;;;;6249855;22;20448;-88
2022/12/13 04:48:33;;;;;;;20.73;9.43;;;-3.40;99.90;;;;;;6277008;22;20015;-93
2022/12/13 04:53:34;;;;;;;21.08;9.20;;;-3.60;99.90;;;;;;6308305;22;20019;-93
2022/12/13 04:56:02;;;;;;;19.52;9.57;;;-3.60;99.90;;;;;;6282331;22;20019;-92
2022/12/13 04:58:28;;;;;;;18.25;8.77;;;-3.60;99.90;;;;;;6282538;22;20046;-96
2022/12/13 05:00:54;;;;;;;19.53;9.47;;;-3.60;99.90;;;;;;6282657;22;20475;-92
2022/12/13 05:04:13;;;;;;;19.02;8.68;;;-3.60;99.90;;;;;;6282744;22;20094;-91
2022/12/13 05:06:50;;;;;;;20.33;9.20;;;-3.60;99.90;;;;;;6283271;22;20011;-93
2022/12/13 05:09:16;;;;;;;;;;;-3.50;99.90;;;;;;6283455;22;20049;-92
2022/12/13 05:11:42;;;;;;;21.23;9.40;;;-3.50;99.90;;;;;;6283486;22;19950;-95
2022/12/13 05:14:08;;;;;;;21.05;8.98;;;-3.60;99.90;;;;;;6282181;22;20016;-92
2022/12/13 05:16:33;;;;;;;18.48;8.95;;;-3.60;99.90;;;;;;6283018;22;20045;-95
2022/12/13 05:18:59;;;;;;;19.25;8.35;;;-3.50;99.90;;;;;;6284194;22;20019;-92
2022/12/13 05:21:40;;;;;;;21.10;9.10;;;-3.50;99.90;;;;;;6284748;22;20011;-96
2022/12/13 05:24:06;;;;;;;21.05;9.40;;;-3.50;99.90;;;;;;6259150;22;20054;-96
2022/12/13 05:26:32;;;;;;;20.02;9.05;;;-3.50;99.90;;;;;;6259255;22;20015;-92
2022/12/13 05:28:58;;;;;;;19.60;8.48;;;-3.40;99.90;;;;;;6285410;22;20098;-94
2022/12/13 05:39:47;;;;;;;;;;;;;;;;;;;;;
2022/12/13 05:42:36;;;;;;;17.10;8.38;;;-3.70;99.90;;;;;;6074722;23;20241;-93
2022/12/13 05:45:18;;;;;;;;;;;;;;;;;;;;;
2022/12/13 05:47:50;;;;;;;17.20;8.43;;;-3.90;99.90;;;;;;6308542;22;20573;-93
2022/12/13 05:50:43;;;;;;;21.70;9.00;;;-3.90;99.90;;;;;;6282888;22;20110;-95
2022/12/13 05:53:14;;;;;;;17.35;8.95;;;-3.90;99.90;;;;;;6282657;22;20030;-93
2022/12/13 05:55:46;;;;;;;21.92;8.65;;;-3.90;99.90;;;;;;6283567;22;20113;-93
2022/12/13 05:58:15;;;;;;;20.83;9.35;;;-3.90;99.90;;;;;;6231763;22;20460;-93
2022/12/13 06:04:46;;;;;;;18.70;8.05;;;-4.00;99.90;;;;;;6310025;22;20469;-92
2022/12/13 06:07:13;;;;;;;17.30;8.70;;;-4.00;99.90;;;;;;6282821;22;20034;-94
2022/12/13 06:09:38;;;;;;;21.17;9.70;;;-3.90;99.90;;;;;;6282877;22;20015;-93
2022/12/13 06:12:04;;;;;;;17.23;8.55;;;-3.90;99.90;;;;;;6257573;22;20015;-92
2022/12/13 06:14:30;;;;;;;17.85;8.80;;;-3.90;99.90;;;;;;6282629;22;20015;-92
2022/12/13 06:16:56;;;;;;;16.77;8.60;;;-3.90;99.90;;;;;;6282385;22;20003;-93
2022/12/13 06:19:46;;;;;;;19.00;8.57;;;-3.90;99.90;;;;;;6256702;22;20509;-92
2022/12/13 06:22:12;;;;;;;18.10;8.20;;;-3.90;99.90;;;;;;6279329;22;20038;-91
2022/12/13 06:25:02;;;;;;;19.77;8.70;;;-4.00;99.90;;;;;;6280626;22;20094;-91
2022/12/13 06:27:28;;;;;;;17.25;8.02;;;-4.00;99.90;;;;;;6279996;22;20022;-92
2022/12/13 06:34:03;;;;;;;19.00;8.18;;;-4.00;99.90;;;;;;6306937;22;20018;-90
2022/12/13 06:36:29;;;;;;;18.13;8.73;;;-4.00;99.90;;;;;;6279789;22;20015;-91
2022/12/13 06:38:55;;;;;;;22.92;9.25;;;-4.00;99.90;;;;;;6307594;22;20019;-88
2022/12/13 06:41:21;;;;;;;17.75;9.68;;;-4.00;99.90;;;;;;6307137;22;20053;-92
2022/12/13 06:43:47;;;;;;;16.90;8.45;;;-4.00;99.90;;;;;;6306511;22;20085;-87
2022/12/13 06:46:14;;;;;;;22.10;9.30;;;-4.00;99.90;;;;;;6307345;22;20498;-88
2022/12/13 06:48:40;;;;;;;18.27;9.15;;;-3.90;99.90;;;;;;6282147;22;20785;-87
2022/12/13 06:51:07;;;;;;;18.00;9.30;;;-3.80;99.90;;;;;;6293567;22;20019;-89
2022/12/13 06:53:36;;;;;;;19.35;9.95;;;-3.80;99.90;;;;;;6282190;22;20436;-94
2022/12/13 06:56:07;;;;;;;20.88;9.45;;;-3.80;99.90;;;;;;6280893;22;20022;-94
2022/12/13 06:58:34;;;;;;;23.33;10.07;;;-3.70;99.90;;;;;;6255753;22;20154;-90
2022/12/13 07:04:53;;;;;;;20.23;9.00;;;-3.70;99.90;;;;;;6309136;22;20050;-87
2022/12/13 07:07:19;;;;;;;17.85;8.38;;;-3.70;99.90;;;;;;6281302;22;20444;-91
2022/12/13 07:09:45;;;;;;;18.10;9.07;;;-3.70;99.90;;;;;;6307405;22;20026;-86
2022/12/13 07:12:10;;;;;;;18.25;8.93;;;-3.70;99.90;;;;;;6256066;22;20053;-88
2022/12/13 07:14:36;;;;;;;21.15;10.20;;;-3.70;99.90;;;;;;6281535;22;20019;-90
2022/12/13 07:17:02;;;;;;;21.58;10.27;;;-3.70;99.90;;;;;;6307094;22;20322;-88
2022/12/13 07:19:27;;;;;;;115.72;43.25;;;-3.70;99.90;;;;;;6305697;22;20440;-87
2022/12/13 07:21:53;;;;;;;25.08;11.77;;;-3.70;99.90;;;;;;6279676;22;20188;-88
2022/12/13 07:24:19;;;;;;;16.95;9.15;;;-3.60;99.90;;;;;;6306860;22;20015;-85
2022/12/13 07:26:45;;;;;;;19.63;9.38;;;-3.60;99.90;;;;;;6281407;22;20122;-86
2022/12/13 07:29:10;;;;;;;20.95;10.50;;;-3.60;99.90;;;;;;6308564;22;20015;-89
2022/12/13 07:31:36;;;;;;;21.88;9.77;;;-3.70;99.90;;;;;;6255929;22;20318;-87
2022/12/13 07:36:57;;;;;;;45.85;19.98;;;-3.70;99.90;;;;;;6264591;22;20126;-89
2022/12/13 07:39:27;;;;;;;23.17;10.45;;;-3.60;99.90;;;;;;6203946;22;20351;-94
2022/12/13 07:41:54;;;;;;;20.10;9.52;;;-3.60;99.90;;;;;;6201613;22;20019;-92
2022/12/13 07:44:20;;;;;;;21.23;10.30;;;-3.70;99.90;;;;;;6225480;22;20333;-94
2022/12/13 07:46:46;;;;;;;21.98;10.00;;;-3.70;99.90;;;;;;6225358;22;20030;-92
2022/12/13 07:49:46;;;;;;;20.52;10.38;;;-3.70;99.90;;;;;;6225536;22;20008;-95
2022/12/13 07:55:37;;;;;;;19.73;9.07;;;-3.70;99.90;;;;;;6250190;22;20073;-94
2022/12/13 07:58:08;;;;;;;19.27;10.18;;;-3.80;99.90;;;;;;6200487;22;21088;-90
2022/12/13 08:00:36;;;;;;;19.23;9.23;;;-3.90;99.90;;;;;;6227439;22;20023;-96
2022/12/13 08:03:02;;;;;;;18.15;8.55;;;-3.90;99.90;;;;;;6226393;22;20095;-96
2022/12/13 08:05:33;;;;;;;17.67;8.82;;;-3.90;99.90;;;;;;6225542;22;20015;-95
2022/12/13 08:08:00;;;;;;;17.73;9.60;;;-3.90;99.90;;;;;;6201237;22;20379;-92
2022/12/13 08:10:28;;;;;;;18.20;9.25;;;-3.90;99.90;;;;;;6225050;22;20016;-91
2022/12/13 08:12:54;;;;;;;21.85;10.05;;;-3.90;99.90;;;;;;6176495;22;20054;-95
2022/12/13 08:15:20;;;;;;;19.75;9.63;;;-3.90;99.90;;;;;;6225020;22;20023;-93
2022/12/13 08:17:46;;;;;;;19.85;9.25;;;-3.90;99.90;;;;;;6225148;22;20024;-96
2022/12/13 08:20:26;;;;;;;;;;;;;;;;;;;;;
2022/12/13 08:23:13;;;;;;;21.55;10.15;;;-3.80;99.90;;;;;;6204727;22;20370;-94
2022/12/13 08:25:39;;;;;;;21.77;10.00;;;-3.80;99.90;;;;;;6200232;22;20340;-92
2022/12/13 08:29:13;;;;;;;;;;;;;;;;;;;;;
2022/12/13 08:31:57;;;;;;;20.08;9.68;;;-3.70;99.90;;;;;;6230318;22;20016;-92
2022/12/13 08:35:06;;;;;;;21.13;8.95;;;-3.70;99.90;;;;;;6200733;22;20030;-93
2022/12/13 08:38:43;;;;;;;17.50;9.23;;;-3.70;99.90;;;;;;6241511;23;20441;-88
2022/12/13 08:41:10;;;;;;;20.23;9.95;;;-3.70;99.90;;;;;;6244844;23;20050;-87
2022/12/13 08:43:36;;;;;;;18.35;8.98;;;-3.70;99.90;;;;;;6219391;23;20043;-86
2022/12/13 08:46:03;;;;;;;20.15;9.85;;;-3.60;99.90;;;;;;6244785;23;20074;-90
2022/12/13 08:48:29;;;;;;;18.33;9.13;;;-3.60;99.90;;;;;;6219528;23;20016;-90
2022/12/13 08:51:02;;;;;;;20.65;9.68;;;-3.50;99.90;;;;;;6221269;23;20123;-88
2022/12/13 08:53:36;;;;;;;18.05;9.52;;;-3.50;99.90;;;;;;6248171;22;20020;-86
2022/12/13 08:56:09;;;;;;;20.75;10.43;;;-3.40;99.90;;;;;;6270144;22;20012;-89
2022/12/13 08:58:36;;;;;;;20.70;8.90;;;-3.40;99.90;;;;;;6219115;23;20016;-87
2022/12/13 09:01:05;;;;;;;21.80;11.38;;;-3.30;99.90;;;;;;6246126;22;20027;-86
2022/12/13 09:11:13;;;;;;;;;;;-3.10;99.90;;;;;;6246045;23;20016;-92
2022/12/13 09:13:39;;;;;;;22.10;9.60;;;-3.10;99.90;;;;;;6220868;23;19916;-90
2022/12/13 09:16:18;;;;;;;23.48;9.68;;;-3.10;99.90;;;;;;6221356;23;20023;-93
2022/12/13 09:18:45;;;;;;;22.45;10.90;;;-3.00;99.90;;;;;;6220511;23;20458;-94
2022/12/13 09:21:15;;;;;;;23.63;11.02;;;-3.00;99.90;;;;;;6222950;23;20020;-96
2022/12/13 09:23:41;;;;;;;24.77;10.70;;;-3.10;99.90;;;;;;6251550;22;20019;-92
2022/12/13 09:26:09;;;;;;;21.27;10.13;;;-3.00;99.90;;;;;;6280609;22;20023;-87
2022/12/13 09:28:36;;;;;;;22.33;10.02;;;-3.00;99.90;;;;;;6280117;22;20011;-88
2022/12/13 09:31:10;;;;;;;20.83;10.23;;;-2.90;99.90;;;;;;6305748;22;20011;-87
2022/12/13 09:33:36;;;;;;;24.52;11.38;;;-3.00;99.90;;;;;;6280189;22;20102;-90
2022/12/13 09:36:07;;;;;;;20.50;10.05;;;-2.90;99.90;;;;;;6280594;22;20011;-86
2022/12/13 09:38:34;;;;;;;23.00;10.77;;;-2.90;99.90;;;;;;6255316;22;20459;-91
2022/12/13 09:41:12;;;;;;;17.80;9.55;;;-2.90;99.90;;;;;;6280297;22;20019;-90
2022/12/13 09:43:38;;;;;;;;;;;-2.90;99.90;;;;;;6281042;22;20015;-90
2022/12/13 09:46:10;;;;;;;22.55;10.35;;;-2.80;99.90;;;;;;6280370;22;19919;-86
2022/12/13 09:48:36;;;;;;;22.40;10.27;;;-2.80;99.90;;;;;;6280386;22;20062;-90
2022/12/13 09:51:02;;;;;;;19.75;10.32;;;-2.70;99.90;;;;;;6280369;22;20019;-86
2022/12/13 09:53:28;;;;;;;26.23;11.32;;;-2.70;99.90;;;;;;6306190;22;20105;-89
2022/12/13 09:55:54;;;;;;;24.30;10.15;;;-2.70;99.90;;;;;;6280420;22;20465;-87
2022/12/13 09:58:26;;;;;;;24.35;11.38;;;-2.60;99.90;;;;;;6305899;22;20020;-86
2022/12/13 10:00:54;;;;;;;22.92;10.75;;;-2.50;99.90;;;;;;6305574;22;20015;-88
2022/12/13 10:03:21;;;;;;;21.52;10.45;;;-2.50;99.90;;;;;;6306903;22;20030;-88
2022/12/13 10:05:55;;;;;;;;;;;-2.30;99.90;;;;;;6308183;22;20011;-85
2022/12/13 10:08:23;;;;;;;23.60;10.95;;;-2.30;99.90;;;;;;6308071;22;20254;-86
2022/12/13 10:10:51;;;;;;;26.40;13.50;;;-2.20;99.90;;;;;;6307080;22;20011;-87
2022/12/13 10:13:49;;;;;;;32.40;18.60;;;-2.20;99.90;;;;;;6305585;22;20019;-84
2022/12/13 10:16:24;;;;;;;23.20;11.05;;;-2.10;99.90;;;;;;6307208;22;20094;-85
2022/12/13 10:18:50;;;;;;;21.77;10.63;;;-2.10;99.90;;;;;;6307437;22;21140;-85
2022/12/13 10:21:36;;;;;;;25.27;12.17;;;-2.00;99.90;;;;;;6282164;22;20065;-86
2022/12/13 10:24:15;;;;;;;22.27;10.00;;;-2.00;99.90;;;;;;6293426;22;20436;-84
2022/12/13 10:26:41;;;;;;;22.77;11.43;;;-1.90;99.90;;;;;;6312778;22;20023;-89
2022/12/13 10:29:07;;;;;;;21.88;10.32;;;-1.90;99.90;;;;;;6313352;22;20007;-84
2022/12/13 10:31:46;;;;;;;24.03;10.90;;;-1.90;99.90;;;;;;6313034;22;20398;-84
2022/12/13 10:34:35;;;;;;;21.15;10.13;;;-1.80;99.90;;;;;;6312726;22;20600;-88
2022/12/13 10:37:29;;;;;;;21.50;10.63;;;-1.80;99.90;;;;;;6312973;22;20086;-89
2022/12/13 10:40:49;;;;;;;23.20;11.82;;;-1.80;99.90;;;;;;6312507;22;20516;-87
2022/12/13 10:43:44;;;;;;;22.45;11.10;;;-1.70;99.90;;;;;;6312806;22;20054;-85
2022/12/13 10:46:19;;;;;;;21.38;9.95;;;-1.70;99.90;;;;;;6312371;22;20014;-88
2022/12/13 10:48:50;;;;;;;19.77;10.63;;;-1.70;99.90;;;;;;6286925;22;20052;-90
2022/12/13 10:51:19;;;;;;;24.80;11.10;;;-1.60;99.90;;;;;;6312569;22;20018;-93
2022/12/13 10:53:52;;;;;;;24.75;11.02;;;-1.60;99.90;;;;;;6339921;22;20397;-89
2022/12/13 10:56:20;;;;;;;23.10;11.15;;;-1.60;99.90;;;;;;6312586;22;20022;-89
2022/12/13 10:59:24;;;;;;;23.77;10.45;;;-1.60;99.90;;;;;;6312990;22;20087;-91
2022/12/13 11:01:50;;;;;;;23.23;11.25;;;-1.60;99.90;;;;;;6193406;23;20023;-88
2022/12/13 11:04:28;;;;;;;21.52;10.70;;;-1.50;99.90;;;;;;6243906;22;20050;-88
2022/12/13 11:06:54;;;;;;;26.90;11.63;;;-1.50;99.90;;;;;;6286445;22;20440;-90
2022/12/13 11:09:29;;;;;;;23.77;10.65;;;-1.50;99.90;;;;;;6286434;22;20022;-92
2022/12/13 11:11:59;;;;;;;28.60;11.60;;;-1.40;99.90;;;;;;6311849;22;20025;-87
2022/12/13 11:14:28;;;;;;;22.83;10.73;;;-1.40;99.90;;;;;;6285993;22;20018;-87
2022/12/13 11:16:57;;;;;;;26.45;11.25;;;-1.40;99.90;;;;;;6311998;22;20474;-93
2022/12/13 11:19:48;;;;;;;20.85;10.05;;;-1.30;99.90;;;;;;6286728;22;20046;-93
2022/12/13 11:22:29;;;;;;;23.17;11.60;;;-1.30;99.90;;;;;;6286990;22;20015;-93
2022/12/13 11:25:08;;;;;;;75.78;43.92;;;-1.30;99.90;;;;;;6286771;22;20011;-93
2022/12/13 11:27:37;;;;;;;27.92;13.60;;;-1.20;99.90;;;;;;6312895;22;20405;-93
2022/12/13 11:30:09;;;;;;;24.23;11.80;;;-1.20;99.90;;;;;;6286026;22;20015;-93
2022/12/13 11:32:37;;;;;;;24.60;11.75;;;-1.20;99.90;;;;;;6286718;22;20097;-93
2022/12/13 11:35:32;;;;;;;23.70;12.65;;;-1.10;99.90;;;;;;6284990;22;20017;-86
2022/12/13 11:41:39;;;;;;;22.75;9.88;;;-1.00;99.90;;;;;;6350580;22;20089;-95
2022/12/13 11:44:51;;;;;;;27.15;13.90;;;-1.00;99.90;;;;;;6298620;22;20022;-94
2022/12/13 12:05:37;;;;;;;17.65;7.95;;;-0.60;99.90;;;;;;6310353;22;20069;-94
2022/12/13 12:11:11;;;;;;;18.15;8.60;;;-0.50;99.90;;;;;;6271884;22;20023;-85
2022/12/13 12:13:48;;;;;;;26.85;13.63;;;-0.50;99.90;;;;;;6224490;22;20480;-85
2022/12/13 12:16:36;;;;;;;20.70;10.93;;;-0.40;99.90;;;;;;6224406;22;20373;-86
2022/12/13 12:19:07;;;;;;;20.60;8.13;;;-0.40;99.90;;;;;;6224063;22;20302;-85
2022/12/13 12:21:45;;;;;;;18.75;8.80;;;-0.40;99.90;;;;;;6224538;22;20023;-87
2022/12/13 12:24:10;;;;;;;;;;;-0.30;99.90;;;;;;6225212;22;20016;-86
2022/12/13 12:27:05;;;;;;;15.73;7.00;;;-0.20;99.90;;;;;;6224333;22;20001;-87
2022/12/13 12:29:51;;;;;;;19.25;7.95;;;-0.20;99.90;;;;;;6225126;22;20016;-87
2022/12/13 12:33:11;;;;;;;15.80;6.80;;;-0.20;99.90;;;;;;6250122;22;20015;-85
2022/12/13 12:35:43;;;;;;;16.38;6.53;;;-0.10;99.90;;;;;;6104422;23;20344;-91
2022/12/13 12:38:27;;;;;;;14.40;6.85;;;-0.10;99.90;;;;;;6218390;22;20020;-86
2022/12/13 12:41:29;;;;;;;13.80;6.60;;;0.00;99.90;;;;;;6222880;22;20447;-85
2022/12/13 12:44:10;;;;;;;14.98;7.00;;;0.00;99.90;;;;;;6224569;22;20388;-86
2022/12/13 12:47:25;;;;;;;15.32;5.85;;;0.10;99.90;;;;;;6224577;22;20529;-86
2022/12/13 12:54:09;;;;;;;12.35;5.30;;;0.10;99.90;;;;;;6275780;22;20030;-85
2022/12/13 12:56:35;;;;;;;12.30;5.53;;;0.20;99.90;;;;;;6104715;23;20018;-92
2022/12/13 12:59:31;;;;;;;11.90;5.03;;;0.20;99.90;;;;;;6201520;22;20045;-87
2022/12/13 13:02:37;;;;;;;13.98;5.47;;;0.30;99.90;;;;;;6249281;22;20507;-88
2022/12/13 13:05:21;;;;;;;16.33;6.47;;;0.30;99.90;;;;;;6224131;22;20016;-89
2022/12/13 13:07:55;;;;;;;13.02;5.30;;;0.30;99.90;;;;;;6224217;22;20448;-86
2022/12/13 13:10:21;;;;;;;13.25;5.15;;;0.30;99.90;;;;;;6249410;22;20019;-87
2022/12/13 13:13:39;;;;;;;9.93;5.05;;;0.30;99.90;;;;;;6224759;22;20092;-85
2022/12/13 13:16:06;;;;;;;12.10;4.53;;;0.40;99.90;;;;;;6168745;22;20024;-86
2022/12/13 13:18:47;;;;;;;11.32;4.70;;;0.40;99.90;;;;;;6224524;22;20049;-86
2022/12/13 13:21:22;;;;;;;13.25;5.43;;;0.40;99.90;;;;;;6224167;22;20102;-87
2022/12/13 13:24:00;;;;;;;11.95;5.03;;;0.40;99.90;;;;;;6224671;22;20016;-86
2022/12/13 13:26:49;;;;;;;11.02;4.45;;;0.50;99.90;;;;;;6250391;22;20357;-87
2022/12/13 13:29:23;;;;;;;10.85;4.75;;;0.50;99.90;;;;;;6224801;22;20016;-88
2022/12/13 13:31:55;;;;;;;11.38;4.97;;;0.50;99.90;;;;;;6224660;22;20023;-87
2022/12/13 13:34:24;;;;;;;12.32;5.00;;;0.50;99.90;;;;;;6224370;22;20051;-87
2022/12/13 13:36:51;;;;;;;11.38;4.25;;;0.50;99.90;;;;;;6224462;22;20012;-87
2022/12/13 13:39:35;;;;;;;11.60;4.90;;;0.50;99.90;;;;;;6250903;22;20011;-86
2022/12/13 13:42:13;;;;;;;11.75;4.68;;;0.50;99.90;;;;;;6225967;22;20035;-86
2022/12/13 13:44:44;;;;;;;12.65;4.88;;;0.50;99.90;;;;;;6226136;22;20016;-87
2022/12/13 13:47:27;;;;;;;11.38;4.68;;;0.50;99.90;;;;;;6226241;22;20007;-87
2022/12/13 13:50:11;;;;;;;9.70;4.10;;;0.50;99.90;;;;;;6226258;22;20016;-87
2022/12/13 13:52:43;;;;;;;9.40;3.70;;;0.50;99.90;;;;;;6226040;22;20016;-88
2022/12/13 13:55:42;;;;;;;13.27;5.38;;;0.50;99.90;;;;;;6226130;22;20061;-87
2022/12/13 13:58:39;;;;;;;11.38;4.63;;;0.50;99.90;;;;;;6226264;22;20016;-87
2022/12/13 14:01:21;;;;;;;10.30;4.13;;;0.40;99.90;;;;;;6225994;22;20468;-91
2022/12/13 14:04:26;;;;;;;8.57;4.38;;;0.40;99.90;;;;;;6226142;22;20051;-91
2022/12/13 14:07:20;;;;;;;11.05;4.50;;;0.40;99.90;;;;;;6278044;22;20052;-89
2022/12/13 14:10:04;;;;;;;12.38;4.95;;;0.40;99.90;;;;;;6224565;22;20023;-88
2022/12/13 14:12:33;;;;;;;13.45;5.50;;;0.40;99.90;;;;;;6250971;22;20022;-91
2022/12/13 14:15:02;;;;;;;10.13;4.72;;;0.30;99.90;;;;;;6251116;22;20027;-91
2022/12/13 14:17:46;;;;;;;12.50;5.35;;;0.30;99.90;;;;;;6225837;22;20099;-89
2022/12/13 14:21:02;;;;;;;10.23;4.13;;;0.30;99.90;;;;;;6277781;22;20020;-87
2022/12/13 14:23:59;;;;;;;59.03;24.33;;;0.20;99.90;;;;;;6160049;22;20499;-85
2022/12/13 14:26:27;;;;;;;11.68;5.35;;;0.20;99.90;;;;;;6225290;22;20047;-85
2022/12/13 14:29:00;;;;;;;24.17;15.15;;;0.20;99.90;;;;;;6223715;22;20024;-86
2022/12/13 14:31:46;;;;;;;52.58;36.70;;;0.10;99.90;;;;;;6250195;22;20051;-86
2022/12/13 14:34:37;;;;;;;11.60;5.35;;;0.10;99.90;;;;;;6250920;22;20055;-84
2022/12/13 14:40:44;;;;;;;13.27;6.05;;;-0.10;99.90;;;;;;6250999;22;20023;-91
2022/12/13 14:43:28;;;;;;;14.13;6.55;;;-0.10;99.90;;;;;;6224942;22;20020;-92
2022/12/13 14:46:02;;;;;;;11.30;4.85;;;-0.20;99.90;;;;;;6225498;22;20484;-85
2022/12/13 14:48:47;;;;;;;12.43;5.60;;;-0.20;99.90;;;;;;6250610;22;20453;-88
2022/12/13 14:51:25;;;;;;;14.13;5.75;;;-0.30;99.90;;;;;;6225499;22;20020;-91
2022/12/13 14:53:52;;;;;;;12.63;5.63;;;-0.40;99.90;;;;;;6225735;22;20051;-87
2022/12/13 14:56:17;;;;;;;12.85;5.85;;;-0.40;99.90;;;;;;6251061;22;20468;-86
2022/12/13 14:58:58;;;;;;;12.43;5.63;;;-0.50;99.90;;;;;;6175335;22;20020;-91